Time;durP1;ratioP1;P1;durP2;ratioP2;P2;SDS_P1;SDS_P2;PMS_P1;PMS_P2;Temp;Humidity;BMP_temperature;BMP_pressure;BME280_temperature;BME280_humidity;BME280_pressure;Samples;Min_cycle;Max_cycle;Signal;HPM_P1;HPM_P2
2023/12/30 00:00:23;;;;;;;7.70;5.60;;;;;;;6.24;69.10;98516.27;105634;1253;61063;-29
2023/12/30 00:02:50;;;;;;;7.20;5.20;;;;;;;6.05;69.60;98525.20;105562;1254;61265;-27
2023/12/30 00:05:18;;;;;;;8.30;5.00;;;;;;;5.82;70.56;98531.25;105545;1257;73643;-27
2023/12/30 00:07:45;;;;;;;7.80;4.20;;;;;;;5.90;71.10;98533.61;105565;1254;74592;-29
2023/12/30 00:10:12;;;;;;;6.20;4.50;;;;;;;6.55;69.41;98532.36;105538;1254;72607;-27
2023/12/30 00:12:39;;;;;;;8.10;5.00;;;;;;;6.78;68.19;98527.22;105564;1257;61159;-27
2023/12/30 00:15:07;;;;;;;8.90;5.20;;;;;;;6.67;68.21;98529.57;105605;1257;61096;-27
2023/12/30 00:17:34;;;;;;;9.70;5.20;;;;;;;6.53;68.50;98533.34;105484;1254;73755;-26
2023/12/30 00:20:01;;;;;;;8.00;5.90;;;;;;;6.32;69.07;98538.12;105666;1256;74383;-27
2023/12/30 00:22:28;;;;;;;8.80;6.10;;;;;;;6.17;69.87;98541.59;105624;1254;73230;-27
2023/12/30 00:24:55;;;;;;;6.90;5.00;;;;;;;6.06;70.27;98537.23;105535;1252;60990;-27
2023/12/30 00:27:22;;;;;;;5.70;4.60;;;;;;;6.03;70.77;98538.60;105757;1261;61223;-27
2023/12/30 00:29:49;;;;;;;7.80;4.50;;;;;;;6.66;69.47;98536.52;105587;1254;73851;-27
2023/12/30 00:32:16;;;;;;;8.60;5.30;;;;;;;6.97;68.14;98538.20;105579;1254;74382;-27
2023/12/30 00:34:43;;;;;;;5.60;4.30;;;;;;;6.90;67.96;98538.59;105752;1254;72456;-27
2023/12/30 00:37:13;;;;;;;8.50;4.90;;;;;;;6.79;67.93;98542.19;105582;1257;61042;-27
2023/12/30 00:39:41;;;;;;;9.40;5.30;;;;;;;6.60;68.42;98541.41;105526;1257;61106;-27
2023/12/30 00:42:07;;;;;;;10.50;5.30;;;;;;;6.45;68.85;98539.96;105559;1254;73912;-27
2023/12/30 00:44:34;;;;;;;8.10;5.50;;;;;;;6.33;68.95;98535.63;105561;1256;74371;-27
2023/12/30 00:47:01;;;;;;;6.40;4.20;;;;;;;6.17;69.80;98539.01;105753;1256;72693;-27
2023/12/30 00:49:28;;;;;;;8.50;4.70;;;;;;;6.72;69.09;98537.34;105799;1252;61163;-27
2023/12/30 00:51:55;;;;;;;6.20;4.70;;;;;;;7.15;67.41;98536.93;105722;1253;61095;-27
2023/12/30 00:54:23;;;;;;;7.00;5.30;;;;;;;7.03;67.06;98537.94;105732;1253;72962;-27
2023/12/30 00:56:49;;;;;;;8.20;5.60;;;;;;;6.83;67.33;98533.91;105805;1254;74180;-27
2023/12/30 00:59:16;;;;;;;8.60;4.80;;;;;;;6.57;67.81;98530.45;105891;1253;72646;-27
2023/12/30 01:01:43;;;;;;;6.50;4.90;;;;;;;6.29;68.96;98529.56;105708;1254;61166;-27
2023/12/30 01:04:12;;;;;;;7.90;5.30;;;;;;;6.04;69.66;98529.92;105496;1257;61235;-27
2023/12/30 01:06:39;;;;;;;8.80;5.90;;;;;;;5.85;70.29;98523.83;105610;1254;73784;-28
2023/12/30 01:09:06;;;;;;;5.30;3.90;;;;;;;5.72;70.72;98521.44;105754;1254;74819;-27
2023/12/30 01:11:34;;;;;;;5.00;3.70;;;;;;;6.09;70.36;98520.08;105517;1253;72438;-27
2023/12/30 01:14:00;;;;;;;6.80;3.30;;;;;;;6.46;69.24;98517.12;105575;1254;61083;-27
2023/12/30 01:16:27;;;;;;;7.10;3.90;;;;;;;6.35;69.38;98518.27;105884;1252;61051;-27
2023/12/30 01:18:54;;;;;;;8.20;4.40;;;;;;;6.14;69.99;98521.66;105816;1252;72822;-27
2023/12/30 01:21:22;;;;;;;9.10;4.90;;;;;;;5.85;71.20;98519.88;105899;1256;74339;-27
2023/12/30 01:23:48;;;;;;;7.30;4.70;;;;;;;5.71;71.48;98517.42;105802;1254;73276;-27
2023/12/30 01:26:15;;;;;;;7.40;5.40;;;;;;;5.29;73.17;98516.28;105513;1257;61051;-27
2023/12/30 01:28:42;;;;;;;6.20;4.00;;;;;;;5.00;74.30;98510.84;105604;1253;61119;-27
2023/12/30 01:31:09;;;;;;;7.80;5.20;;;;;;;5.40;73.25;98512.46;105724;1254;73612;-27
2023/12/30 01:33:37;;;;;;;6.90;4.60;;;;;;;5.76;71.30;98509.98;105536;1254;73016;-27
2023/12/30 01:36:05;;;;;;;10.00;6.20;;;;;;;5.67;71.39;98507.52;105552;1254;73212;-27
2023/12/30 01:38:32;;;;;;;6.50;5.10;;;;;;;5.54;71.55;98505.14;105516;1252;61141;-27
2023/12/30 01:40:59;;;;;;;11.10;5.90;;;;;;;5.20;72.89;98505.86;105538;1253;61094;-28
2023/12/30 01:43:27;;;;;;;13.30;5.00;;;;;;;4.89;74.15;98506.89;105497;1254;72845;-27
2023/12/30 01:45:58;;;;;;;6.30;4.10;;;;;;;4.65;75.51;98512.58;105719;1254;73093;-27
2023/12/30 01:48:25;;;;;;;8.70;5.10;;;;;;;5.24;73.66;98513.90;105654;1259;70553;-27
2023/12/30 01:50:52;;;;;;;8.50;5.30;;;;;;;5.62;71.93;98514.25;105665;1254;61196;-27
2023/12/30 01:53:19;;;;;;;5.50;4.50;;;;;;;5.45;71.98;98507.81;105542;1257;61718;-27
2023/12/30 01:55:51;;;;;;;10.70;4.90;;;;;;;5.06;73.64;98508.21;105710;1254;73759;-27
2023/12/30 01:58:18;;;;;;;8.70;6.00;;;;;;;4.81;74.51;98505.40;105319;1254;74343;-27
2023/12/30 02:00:49;;;;;;;7.90;5.10;;;;;;;4.55;75.72;98505.16;105523;1254;71140;-27
2023/12/30 02:03:17;;;;;;;8.40;5.00;;;;;;;4.40;76.62;98498.77;105463;1253;61064;-27
2023/12/30 02:05:46;;;;;;;7.80;5.30;;;;;;;4.92;74.78;98502.20;105760;1254;61095;-27
2023/12/30 02:08:14;;;;;;;9.90;5.60;;;;;;;4.97;74.22;98494.00;105573;1258;72497;-27
2023/12/30 02:10:40;;;;;;;7.80;5.50;;;;;;;4.84;74.46;98490.41;105539;1259;72699;-28
2023/12/30 02:15:10;;;;;;;5.10;3.90;;;;;;;4.44;75.95;98487.50;102757;1290;600027;-26
2023/12/30 02:17:37;;;;;;;7.10;4.80;;;;;;;4.23;76.98;98488.13;104655;1272;61228;-26
2023/12/30 02:20:06;;;;;;;7.60;4.90;;;;;;;4.35;77.03;98486.05;104874;1265;61042;-26
2023/12/30 02:22:34;;;;;;;8.80;4.40;;;;;;;4.82;75.21;98487.42;104771;1267;69975;-26
2023/12/30 02:32:37;;;;;;;13.10;6.00;;;;;;;4.46;76.60;98478.29;102664;1294;600072;-25
2023/12/30 02:35:05;;;;;;;6.30;4.50;;;;;;;4.36;77.04;98474.24;104849;1266;61111;-25
2023/12/30 02:37:33;;;;;;;7.30;4.30;;;;;;;4.75;75.93;98473.80;104844;1271;61508;-25
2023/12/30 02:40:01;;;;;;;5.50;3.50;;;;;;;4.83;75.31;98472.03;104866;1268;71016;-25
2023/12/30 02:42:28;;;;;;;7.20;4.80;;;;;;;4.90;74.79;98473.83;108615;1267;73166;-26
2023/12/30 02:44:57;;;;;;;8.60;5.70;;;;;;;4.66;75.61;98472.14;108528;1267;72735;-26
2023/12/30 02:47:24;;;;;;;6.50;4.40;;;;;;;4.51;76.22;98473.09;108558;1264;148843;-26
2023/12/30 02:49:52;;;;;;;6.10;4.60;;;;;;;4.38;77.10;98470.86;108655;1268;58722;-26
2023/12/30 02:52:19;;;;;;;7.30;5.00;;;;;;;4.85;75.60;98477.23;108687;1264;72273;-26
2023/12/30 02:54:47;;;;;;;8.00;4.90;;;;;;;4.99;74.78;98478.23;108662;1265;74309;-26
2023/12/30 02:57:15;;;;;;;11.20;5.90;;;;;;;4.87;74.93;98479.55;108652;1265;72717;-26
2023/12/30 02:59:42;;;;;;;7.20;5.00;;;;;;;4.63;76.02;98474.27;108711;1265;58838;-26
2023/12/30 03:02:10;;;;;;;8.30;4.40;;;;;;;4.48;76.51;98471.25;108657;1264;60023;-26
2023/12/30 03:04:37;;;;;;;6.20;4.10;;;;;;;4.29;77.60;98463.90;108707;1264;70787;-26
2023/12/30 03:07:05;;;;;;;5.00;3.50;;;;;;;4.56;77.12;98463.86;108604;1264;74339;-26
2023/12/30 03:09:32;;;;;;;7.60;3.60;;;;;;;5.07;75.01;98462.73;108639;1265;72836;-26
2023/12/30 03:11:59;;;;;;;5.80;4.10;;;;;;;5.11;74.43;98463.34;108650;1265;58842;-26
2023/12/30 03:14:27;;;;;;;6.30;4.30;;;;;;;4.94;74.74;98466.54;108634;1264;60019;-26
2023/12/30 03:16:54;;;;;;;5.40;4.40;;;;;;;4.68;75.80;98463.40;108726;1265;73028;-26
2023/12/30 03:19:22;;;;;;;7.20;4.00;;;;;;;4.48;76.48;98466.09;108677;1264;73206;-26
2023/12/30 03:21:49;;;;;;;7.70;4.10;;;;;;;4.36;77.41;98462.94;108695;1265;72719;-26
2023/12/30 03:24:17;;;;;;;8.10;5.20;;;;;;;4.84;75.87;98464.27;108705;1265;60143;-26
2023/12/30 03:26:44;;;;;;;12.20;5.20;;;;;;;4.87;75.26;98468.68;108666;1265;58771;-26
2023/12/30 03:29:12;;;;;;;6.90;5.10;;;;;;;4.72;75.87;98469.84;108652;1264;73048;-26
2023/12/30 03:31:41;;;;;;;5.10;4.10;;;;;;;4.54;76.52;98467.08;108720;1264;74279;-26
2023/12/30 03:34:08;;;;;;;8.70;5.60;;;;;;;4.33;77.10;98467.41;108685;1265;71873;-26
2023/12/30 03:36:36;;;;;;;5.50;4.40;;;;;;;4.30;77.80;98470.66;108657;1265;59647;-29
2023/12/30 03:39:05;;;;;;;5.50;4.50;;;;;;;4.64;76.71;98470.60;108603;1265;59780;-26
2023/12/30 03:41:33;;;;;;;9.40;6.40;;;;;;;4.66;76.10;98471.48;108731;1265;73034;-26
2023/12/30 03:44:00;;;;;;;7.00;5.70;;;;;;;4.47;76.71;98469.92;108575;1265;73053;-26
2023/12/30 03:46:27;;;;;;;9.20;4.80;;;;;;;4.25;77.50;98470.52;108615;1266;72670;-26
2023/12/30 03:48:55;;;;;;;9.80;5.30;;;;;;;4.04;78.72;98474.09;108543;1265;58845;-26
2023/12/30 03:51:23;;;;;;;8.10;4.10;;;;;;;4.40;77.73;98472.80;108575;1265;58816;-26
2023/12/30 03:53:51;;;;;;;7.80;5.30;;;;;;;4.70;76.43;98469.16;108557;1265;73141;-26
2023/12/30 03:56:18;;;;;;;7.60;4.70;;;;;;;4.69;76.15;98470.08;108672;1265;74515;-26
2023/12/30 03:58:46;;;;;;;5.50;4.70;;;;;;;4.53;76.52;98469.55;108533;1268;72686;-26
2023/12/30 04:01:13;;;;;;;9.00;6.00;;;;;;;4.26;77.85;98468.03;108555;1266;59443;-26
2023/12/30 04:03:41;;;;;;;6.90;4.00;;;;;;;4.08;78.73;98471.07;108687;1265;60046;-26
2023/12/30 04:06:15;;;;;;;9.20;5.80;;;;;;;4.24;78.86;98467.84;108600;1265;73045;-26
2023/12/30 04:08:43;;;;;;;5.50;4.70;;;;;;;4.52;77.54;98468.55;108553;1266;73072;-26
2023/12/30 04:11:11;;;;;;;7.20;4.90;;;;;;;4.56;77.42;98465.55;108650;1265;72734;-26
2023/12/30 04:13:38;;;;;;;7.50;5.20;;;;;;;4.48;77.72;98466.41;108547;1265;60202;-26
2023/12/30 04:16:06;;;;;;;7.10;4.90;;;;;;;4.27;78.66;98465.21;108652;1265;58765;-26
2023/12/30 04:18:34;;;;;;;7.30;4.70;;;;;;;4.20;79.17;98466.85;108554;1265;73041;-26
2023/12/30 04:21:01;;;;;;;8.80;5.20;;;;;;;4.53;78.31;98468.69;108597;1265;74357;-26
2023/12/30 04:23:29;;;;;;;8.40;5.10;;;;;;;4.87;76.84;98465.95;108541;1265;72691;-26
2023/12/30 04:25:56;;;;;;;7.10;4.90;;;;;;;4.91;76.59;98460.67;108633;1265;60104;-26
2023/12/30 04:28:24;;;;;;;9.40;5.30;;;;;;;4.96;76.07;98456.20;108663;1265;58797;-26
2023/12/30 04:30:52;;;;;;;10.60;5.00;;;;;;;4.86;76.10;98456.35;108554;1265;71774;-27
2023/12/30 04:33:19;;;;;;;6.90;4.70;;;;;;;4.65;76.85;98457.43;108581;1265;74423;-26
2023/12/30 04:35:47;;;;;;;6.90;4.60;;;;;;;4.66;77.40;98458.02;108652;1268;72665;-26
2023/12/30 04:38:15;;;;;;;6.70;4.80;;;;;;;5.30;75.41;98460.64;109005;1257;58791;-26
2023/12/30 04:40:42;;;;;;;8.60;5.00;;;;;;;5.39;74.54;98457.11;109016;1257;60059;-26
2023/12/30 04:43:10;;;;;;;7.50;4.70;;;;;;;5.15;75.18;98451.69;108980;1258;72765;-26
2023/12/30 04:45:38;;;;;;;5.70;4.70;;;;;;;4.84;75.99;98452.92;108962;1259;74340;-26
2023/12/30 04:48:08;;;;;;;16.10;7.20;;;;;;;4.60;77.45;98451.77;108924;1258;71792;-26
2023/12/30 04:50:35;;;;;;;7.20;4.50;;;;;;;4.42;78.41;98449.84;109022;1258;58862;-26
2023/12/30 04:53:03;;;;;;;6.40;4.20;;;;;;;4.64;78.07;98452.64;109045;1258;58827;-26
2023/12/30 04:55:31;;;;;;;7.30;4.80;;;;;;;5.04;76.55;98448.45;108887;1258;73179;-26
2023/12/30 04:58:00;;;;;;;9.20;5.00;;;;;;;5.03;75.95;98450.58;108945;1258;74321;-26
2023/12/30 05:00:28;;;;;;;6.90;4.80;;;;;;;4.71;77.15;98456.01;108940;1259;72681;-26
2023/12/30 05:02:55;;;;;;;6.70;4.90;;;;;;;4.53;78.06;98450.81;108937;1258;58997;-26
2023/12/30 05:05:23;;;;;;;5.70;4.20;;;;;;;4.40;78.59;98451.14;108958;1259;60512;-26
2023/12/30 05:07:50;;;;;;;6.20;4.50;;;;;;;4.67;77.96;98455.06;109037;1258;72167;-26
2023/12/30 05:10:18;;;;;;;7.30;5.20;;;;;;;4.87;76.93;98460.29;108948;1259;73067;-26
2023/12/30 05:12:45;;;;;;;8.70;5.60;;;;;;;4.88;76.68;98461.07;109006;1259;72791;-26
2023/12/30 05:15:13;;;;;;;5.20;3.80;;;;;;;4.89;76.41;98468.16;109039;1259;59331;-26
2023/12/30 05:17:40;;;;;;;7.50;4.90;;;;;;;4.66;77.19;98468.20;109031;1259;58769;-26
2023/12/30 05:20:09;;;;;;;6.90;4.10;;;;;;;4.54;77.94;98474.48;108974;1258;71809;-26
2023/12/30 05:22:36;;;;;;;6.70;4.80;;;;;;;4.98;76.96;98475.87;109030;1258;74338;-26
2023/12/30 05:25:04;;;;;;;9.50;5.10;;;;;;;5.31;75.13;98479.48;108904;1259;72664;-26
2023/12/30 05:27:31;;;;;;;9.10;6.30;;;;;;;5.34;74.76;98471.21;109010;1259;60089;-26
2023/12/30 05:29:59;;;;;;;5.50;3.90;;;;;;;5.22;75.30;98466.33;109010;1259;59892;-26
2023/12/30 05:32:26;;;;;;;7.30;5.40;;;;;;;4.89;76.43;98467.70;108971;1259;71749;-26
2023/12/30 05:34:54;;;;;;;7.40;4.50;;;;;;;4.72;77.27;98465.23;109009;1259;74310;-26
2023/12/30 05:37:21;;;;;;;7.90;5.00;;;;;;;4.91;77.12;98461.23;109016;1259;72746;-26
2023/12/30 05:39:49;;;;;;;5.20;3.50;;;;;;;5.41;74.93;98461.42;108979;1258;60073;-26
2023/12/30 05:42:16;;;;;;;8.60;5.20;;;;;;;5.53;74.46;98460.28;109025;1259;60178;-26
2023/12/30 05:44:44;;;;;;;7.80;4.70;;;;;;;5.40;74.64;98461.33;108970;1259;71784;-26
2023/12/30 05:47:12;;;;;;;10.30;5.40;;;;;;;5.19;75.38;98460.04;108932;1259;74323;-26
2023/12/30 05:49:42;;;;;;;11.10;5.90;;;;;;;5.13;75.73;98461.11;108975;1259;71401;-26
2023/12/30 05:52:10;;;;;;;5.60;3.80;;;;;;;4.93;76.63;98460.90;108909;1259;61350;-26
2023/12/30 05:54:37;;;;;;;8.60;4.70;;;;;;;5.46;75.12;98458.02;109005;1258;58899;-26
2023/12/30 05:57:04;;;;;;;8.60;6.00;;;;;;;5.63;73.89;98457.17;108967;1259;73067;-26
2023/12/30 05:59:32;;;;;;;10.20;5.50;;;;;;;5.72;73.37;98463.05;109007;1259;74334;-26
2023/12/30 06:01:59;;;;;;;8.50;5.80;;;;;;;5.41;74.25;98463.52;108981;1259;71100;-26
2023/12/30 06:04:27;;;;;;;13.10;5.90;;;;;;;5.29;74.65;98467.60;108986;1259;60060;-26
2023/12/30 06:06:55;;;;;;;8.80;5.00;;;;;;;5.08;75.54;98466.77;108951;1259;60026;-26
2023/12/30 06:09:22;;;;;;;6.20;4.00;;;;;;;5.00;75.86;98464.23;108991;1259;73039;-25
2023/12/30 06:11:50;;;;;;;7.60;5.10;;;;;;;5.45;74.61;98464.98;108918;1259;74379;-26
2023/12/30 06:14:17;;;;;;;6.50;5.00;;;;;;;5.66;73.38;98459.17;108966;1259;71839;-26
2023/12/30 06:16:45;;;;;;;8.50;5.10;;;;;;;5.59;73.53;98462.08;108920;1259;58860;-26
2023/12/30 06:19:13;;;;;;;9.60;5.70;;;;;;;5.21;74.65;98462.77;108991;1259;59983;-26
2023/12/30 06:21:44;;;;;;;8.00;5.40;;;;;;;4.96;76.00;98463.11;108938;1259;71768;-26
2023/12/30 06:24:11;;;;;;;7.20;5.30;;;;;;;4.81;76.64;98468.25;108953;1259;73076;-26
2023/12/30 06:26:39;;;;;;;7.00;4.60;;;;;;;4.95;76.58;98468.52;108891;1260;72638;-26
2023/12/30 06:29:07;;;;;;;8.20;5.60;;;;;;;5.30;75.14;98472.20;108995;1259;58801;-26
2023/12/30 06:31:42;;;;;;;10.30;5.90;;;;;;;5.57;73.60;98470.16;109022;1259;60056;-26
2023/12/30 06:34:09;;;;;;;5.10;4.30;;;;;;;5.40;73.93;98471.85;108867;1259;73066;-26
2023/12/30 06:36:37;;;;;;;8.50;5.80;;;;;;;5.17;74.86;98466.52;108998;1259;74330;-26
2023/12/30 06:39:08;;;;;;;7.60;5.80;;;;;;;5.13;74.94;98470.05;108976;1259;71469;-26
2023/12/30 06:41:36;;;;;;;7.80;4.80;;;;;;;5.01;75.56;98473.45;108912;1259;58851;-26
2023/12/30 06:44:03;;;;;;;8.40;5.70;;;;;;;5.33;75.04;98475.57;108905;1259;60050;-26
2023/12/30 06:46:33;;;;;;;8.00;4.60;;;;;;;5.68;73.41;98475.91;108944;1259;73862;-26
2023/12/30 06:49:01;;;;;;;6.80;4.20;;;;;;;5.62;73.51;98471.89;108978;1259;73100;-26
2023/12/30 06:51:29;;;;;;;8.40;6.00;;;;;;;5.58;73.32;98474.70;108958;1259;71505;-26
2023/12/30 06:53:56;;;;;;;6.30;4.40;;;;;;;5.32;74.16;98471.85;108985;1259;60070;-26
2023/12/30 06:56:24;;;;;;;8.70;5.50;;;;;;;5.33;74.20;98474.05;108950;1259;58826;-26
2023/12/30 06:58:52;;;;;;;5.50;4.00;;;;;;;5.18;74.96;98476.94;108977;1259;73856;-26
2023/12/30 07:01:24;;;;;;;7.40;4.30;;;;;;;5.68;73.81;98471.64;108982;1263;74308;-26
2023/12/30 07:03:52;;;;;;;4.90;3.50;;;;;;;5.88;72.73;98470.56;108991;1259;72730;-26
2023/12/30 07:06:20;;;;;;;8.30;5.50;;;;;;;5.87;72.76;98473.05;108948;1260;58934;-26
2023/12/30 07:08:48;;;;;;;11.80;5.80;;;;;;;5.76;72.95;98467.41;108956;1259;60035;-26
2023/12/30 07:11:15;;;;;;;8.30;5.20;;;;;;;5.65;73.18;98467.35;108914;1259;72668;-26
2023/12/30 07:13:43;;;;;;;7.90;4.70;;;;;;;5.52;73.89;98458.23;108999;1259;73206;-26
2023/12/30 07:16:13;;;;;;;7.90;5.00;;;;;;;5.98;72.63;98462.10;108998;1259;71679;-26
2023/12/30 07:18:40;;;;;;;10.10;5.60;;;;;;;6.30;71.50;98462.73;108917;1259;58945;-26
2023/12/30 07:21:08;;;;;;;8.80;5.00;;;;;;;6.39;70.80;98462.44;108989;1259;60044;-26
2023/12/30 07:23:35;;;;;;;8.20;5.20;;;;;;;6.38;70.58;98464.45;108989;1259;73589;-26
2023/12/30 07:26:03;;;;;;;10.50;6.00;;;;;;;6.11;71.56;98465.17;108921;1259;74304;-26
2023/12/30 07:28:30;;;;;;;6.60;5.10;;;;;;;6.09;71.41;98457.39;108929;1259;72641;-26
2023/12/30 07:30:58;;;;;;;6.40;5.30;;;;;;;5.97;71.87;98461.50;108972;1259;58875;-26
2023/12/30 07:33:26;;;;;;;8.80;4.80;;;;;;;6.08;72.19;98459.02;108936;1259;60043;-26
2023/12/30 07:35:54;;;;;;;8.30;5.30;;;;;;;6.56;70.31;98453.86;108984;1260;72100;-26
2023/12/30 07:38:22;;;;;;;6.90;4.40;;;;;;;6.71;69.44;98457.34;108978;1260;73221;-26
2023/12/30 07:40:49;;;;;;;7.80;5.40;;;;;;;6.48;69.98;98456.98;108976;1260;72682;-26
2023/12/30 07:43:17;;;;;;;11.40;5.90;;;;;;;6.54;69.69;98459.11;108939;1259;58872;-26
2023/12/30 07:45:45;;;;;;;10.70;5.70;;;;;;;6.37;70.35;98458.98;108944;1259;60287;-26
2023/12/30 07:48:12;;;;;;;12.60;6.40;;;;;;;6.32;70.45;98460.19;108930;1259;73815;-26
2023/12/30 07:50:40;;;;;;;9.20;4.30;;;;;;;6.29;70.60;98465.73;108990;1264;74300;-26
2023/12/30 07:53:08;;;;;;;12.90;5.80;;;;;;;6.59;70.19;98457.05;108920;1260;72659;-26
2023/12/30 07:55:35;;;;;;;7.90;5.40;;;;;;;6.98;68.58;98451.38;108927;1263;58871;-26
2023/12/30 07:58:03;;;;;;;7.20;4.70;;;;;;;7.21;67.60;98454.45;108947;1260;58754;-26
2023/12/30 08:00:31;;;;;;;8.40;5.80;;;;;;;6.99;67.86;98455.58;108975;1261;73892;-26
2023/12/30 08:02:58;;;;;;;9.50;6.10;;;;;;;6.77;68.37;98455.00;108935;1259;74350;-26
2023/12/30 08:05:26;;;;;;;9.90;5.10;;;;;;;6.77;68.65;98459.98;108910;1259;71369;-27
2023/12/30 08:07:54;;;;;;;6.00;3.80;;;;;;;6.53;69.57;98460.07;108951;1261;58883;-26
2023/12/30 08:10:22;;;;;;;10.10;6.10;;;;;;;6.47;70.10;98462.03;108876;1259;58814;-26
2023/12/30 08:12:50;;;;;;;8.60;4.60;;;;;;;6.55;70.04;98453.57;108931;1265;71726;-26
2023/12/30 08:15:18;;;;;;;5.80;4.30;;;;;;;6.82;69.52;98457.58;108930;1260;74326;-26
2023/12/30 08:17:45;;;;;;;10.50;5.30;;;;;;;7.35;67.59;98465.09;108915;1259;71824;-26
2023/12/30 08:20:14;;;;;;;8.10;5.40;;;;;;;7.47;66.95;98466.30;108976;1260;58855;-26
2023/12/30 08:22:41;;;;;;;9.50;5.50;;;;;;;7.52;66.52;98466.44;108922;1260;58723;-25
2023/12/30 08:25:09;;;;;;;11.90;6.00;;;;;;;7.40;67.02;98463.21;108920;1260;73895;-26
2023/12/30 08:27:37;;;;;;;7.80;4.30;;;;;;;7.22;67.18;98464.23;109009;1260;73143;-26
2023/12/30 08:30:05;;;;;;;10.00;5.40;;;;;;;7.12;67.74;98470.13;108888;1259;70388;-26
2023/12/30 08:32:33;;;;;;;11.00;6.50;;;;;;;7.14;67.58;98464.98;108880;1260;59472;-26
2023/12/30 08:35:02;;;;;;;6.90;4.90;;;;;;;7.06;68.08;98460.27;108866;1266;62309;-26
2023/12/30 08:37:30;;;;;;;6.90;4.80;;;;;;;7.30;68.15;98461.86;108861;1261;73856;-26
2023/12/30 08:39:58;;;;;;;8.20;5.10;;;;;;;7.78;66.42;98460.95;108891;1260;74364;-26
2023/12/30 08:42:34;;;;;;;10.20;6.40;;;;;;;7.87;66.00;98458.90;108915;1260;72628;-26
2023/12/30 08:45:07;;;;;;;10.30;6.10;;;;;;;7.96;65.59;98456.73;108862;1260;58911;-26
2023/12/30 08:47:37;;;;;;;9.90;5.20;;;;;;;7.87;65.45;98454.33;108854;1260;60094;-26
2023/12/30 08:50:08;;;;;;;5.70;4.20;;;;;;;7.75;65.56;98449.22;108852;1260;74962;-26
2023/12/30 08:52:37;;;;;;;8.20;6.40;;;;;;;7.77;65.63;98456.49;108824;1260;74515;-26
2023/12/30 08:55:11;;;;;;;13.40;6.40;;;;;;;7.70;66.08;98462.92;108851;1260;72638;-26
2023/12/30 08:57:43;;;;;;;9.40;5.90;;;;;;;7.74;66.21;98461.12;108817;1267;58889;-26
2023/12/30 09:00:15;;;;;;;8.30;5.30;;;;;;;7.63;66.11;98455.34;108827;1262;59983;-26
2023/12/30 09:02:48;;;;;;;8.70;5.20;;;;;;;7.68;66.21;98454.32;108853;1260;73838;-26
2023/12/30 09:05:18;;;;;;;;;;;;;;;7.78;65.71;98450.23;108850;1260;74339;-25
2023/12/30 09:07:48;;;;;;;6.90;3.40;;;;;;;7.82;65.66;98449.39;108755;1260;72523;-26
2023/12/30 09:10:20;;;;;;;9.50;6.00;;;;;;;7.88;65.20;98437.31;108837;1261;59276;-26
2023/12/30 09:12:50;;;;;;;6.80;4.90;;;;;;;7.86;65.68;98437.16;108817;1264;58907;-26
2023/12/30 09:15:21;;;;;;;6.60;3.90;;;;;;;8.23;65.36;98438.73;108918;1261;73965;-26
2023/12/30 09:17:52;;;;;;;6.90;4.90;;;;;;;8.86;62.80;98434.25;108846;1260;73466;-26
2023/12/30 09:20:22;;;;;;;8.10;4.60;;;;;;;9.06;61.63;98431.71;108873;1261;71788;-26
2023/12/30 09:22:52;;;;;;;6.80;4.40;;;;;;;9.14;61.41;98434.86;108808;1260;58880;-26
2023/12/30 09:25:24;;;;;;;7.80;4.70;;;;;;;9.11;61.58;98438.73;108809;1260;58777;-25
2023/12/30 09:27:55;;;;;;;7.40;4.50;;;;;;;9.09;61.85;98434.92;108836;1260;73790;-26
2023/12/30 09:30:24;;;;;;;8.80;5.30;;;;;;;9.03;61.03;98429.16;108782;1261;73208;-26
2023/12/30 09:32:54;;;;;;;7.00;4.50;;;;;;;9.07;61.50;98430.89;108805;1261;72827;-26
2023/12/30 09:35:27;;;;;;;7.40;4.70;;;;;;;8.99;61.07;98426.79;108820;1260;58927;-26
2023/12/30 09:38:00;;;;;;;8.40;5.20;;;;;;;9.02;61.60;98432.36;108795;1260;60047;-26
2023/12/30 09:40:31;;;;;;;6.80;4.60;;;;;;;8.99;61.68;98429.53;108835;1260;73880;-25
2023/12/30 09:50:32;;;;;;;7.50;5.10;;;;;;;8.96;61.63;98425.77;102752;1289;599302;-25
2023/12/30 09:53:00;;;;;;;9.30;4.70;;;;;;;8.96;61.29;98422.33;104840;1266;61080;-25
2023/12/30 09:55:28;;;;;;;9.70;5.20;;;;;;;8.97;61.44;98418.62;104856;1266;61244;-24
2023/12/30 09:57:56;;;;;;;8.90;4.90;;;;;;;8.99;61.42;98421.60;105023;1269;72287;-25
2023/12/30 10:00:24;;;;;;;6.60;4.50;;;;;;;8.94;61.34;98415.07;105191;1266;74248;-26
2023/12/30 10:02:52;;;;;;;8.90;4.70;;;;;;;8.90;61.62;98417.15;104764;1264;72681;-27
2023/12/30 10:05:20;;;;;;;9.50;5.00;;;;;;;8.85;61.59;98409.77;104865;1263;171516;-27
2023/12/30 10:07:47;;;;;;;8.70;4.70;;;;;;;8.81;61.76;98410.96;105163;1262;61155;-27
2023/12/30 10:17:52;;;;;;;8.40;4.90;;;;;;;8.75;62.26;98403.47;102744;1292;600226;-25
2023/12/30 10:20:23;;;;;;;8.20;4.90;;;;;;;8.76;62.05;98396.66;105503;1262;61238;-24
2023/12/30 10:22:51;;;;;;;7.20;4.00;;;;;;;8.73;62.16;98393.80;105518;1256;61081;-27
2023/12/30 10:25:18;;;;;;;7.10;4.90;;;;;;;8.70;62.20;98389.91;105518;1257;72333;-27
2023/12/30 10:27:49;;;;;;;9.70;4.70;;;;;;;8.68;62.29;98387.98;105279;1257;73098;-26
2023/12/30 10:30:20;;;;;;;8.00;3.80;;;;;;;8.63;62.28;98377.44;105078;1264;72261;-27
2023/12/30 10:32:47;;;;;;;7.20;4.00;;;;;;;8.82;62.41;98379.20;105231;1257;61151;-27
2023/12/30 10:35:15;;;;;;;5.70;4.30;;;;;;;9.32;60.75;98374.95;105490;1257;61228;-25
2023/12/30 10:37:43;;;;;;;5.40;3.70;;;;;;;9.60;59.86;98372.20;105444;1259;72225;-27
2023/12/30 10:40:11;;;;;;;6.70;3.80;;;;;;;9.41;59.61;98353.24;105368;1257;74250;-27
2023/12/30 10:42:42;;;;;;;6.00;4.00;;;;;;;9.46;59.52;98356.27;105568;1257;70473;-27
2023/12/30 10:45:09;;;;;;;7.00;4.70;;;;;;;9.32;60.22;98351.27;105344;1257;60997;-26
2023/12/30 10:47:40;;;;;;;5.50;3.90;;;;;;;9.28;60.30;98349.77;105399;1262;61164;-26
2023/12/30 10:50:09;;;;;;;7.30;4.40;;;;;;;9.13;60.83;98341.24;105312;1264;71843;-27
2023/12/30 10:52:46;;;;;;;6.60;3.80;;;;;;;9.06;60.97;98327.85;105339;1256;73069;-27
2023/12/30 11:02:53;;;;;;;5.30;3.50;;;;;;;9.15;61.06;98310.45;102692;1292;598721;-27
2023/12/30 11:13:05;;;;;;;4.30;2.70;;;;;;;9.40;60.66;98311.72;102726;1292;599448;-25
2023/12/30 11:15:33;;;;;;;6.40;4.00;;;;;;;9.37;60.23;98304.84;104829;1272;61198;-25
2023/12/30 11:18:01;;;;;;;5.30;3.80;;;;;;;9.41;60.42;98303.89;104844;1266;61191;-26
2023/12/30 11:28:19;;;;;;;5.00;3.70;;;;;;;9.54;59.81;98298.54;102734;1289;599093;-25
2023/12/30 11:38:31;;;;;;;4.40;3.00;;;;;;;9.57;59.91;98293.10;102776;1294;599175;-25
2023/12/30 11:48:36;;;;;;;4.30;3.20;;;;;;;9.60;59.67;98280.66;102686;1288;600212;-25
2023/12/30 11:51:04;;;;;;;6.60;3.90;;;;;;;9.58;59.90;98284.34;104809;1273;61238;-25
2023/12/30 11:53:37;;;;;;;4.80;3.40;;;;;;;9.59;59.51;98283.70;105236;1266;61182;-27
2023/12/30 11:56:05;;;;;;;;;;;;;;;9.64;59.50;98283.65;105195;1269;71044;-24
2023/12/30 11:58:33;;;;;;;4.90;3.20;;;;;;;9.58;59.51;98285.16;105250;1269;73259;-25
2023/12/30 12:01:01;;;;;;;6.50;4.10;;;;;;;9.59;59.70;98285.13;105185;1263;71178;-25
2023/12/30 12:03:29;;;;;;;4.90;3.50;;;;;;;9.47;59.90;98283.19;105586;1259;61192;-26
2023/12/30 12:05:57;;;;;;;5.00;3.70;;;;;;;9.45;59.82;98272.86;105762;1258;61125;-27
2023/12/30 12:08:25;;;;;;;5.10;3.90;;;;;;;9.50;60.14;98274.27;105889;1257;71012;-27
2023/12/30 12:18:33;;;;;;;7.90;3.70;;;;;;;9.45;60.25;98253.30;103368;1286;600140;-25
2023/12/30 12:28:37;;;;;;;4.80;3.60;;;;;;;9.36;60.65;98250.04;102900;1290;600051;-26
2023/12/30 12:38:46;;;;;;;6.00;4.20;;;;;;;9.31;60.78;98241.86;102746;1294;599537;-26
2023/12/30 12:41:13;;;;;;;7.10;4.20;;;;;;;9.31;60.98;98251.34;105077;1269;61072;-26
2023/12/30 12:43:41;;;;;;;7.40;4.90;;;;;;;9.23;61.19;98253.27;104834;1272;61194;-27
2023/12/30 12:46:09;;;;;;;8.80;4.70;;;;;;;9.19;61.39;98252.75;104715;1266;71028;-26
2023/12/30 12:48:37;;;;;;;6.00;4.50;;;;;;;9.15;61.33;98248.80;104678;1271;74447;-25
2023/12/30 12:51:06;;;;;;;6.30;4.70;;;;;;;9.08;61.53;98245.08;104765;1266;72741;-26
2023/12/30 13:01:12;;;;;;;6.40;4.50;;;;;;;8.91;62.49;98253.09;102936;1292;599351;-27
2023/12/30 13:03:39;;;;;;;6.60;4.80;;;;;;;8.84;62.56;98255.27;105113;1270;61198;-26
2023/12/30 13:06:12;;;;;;;6.80;4.80;;;;;;;8.82;62.69;98251.85;105035;1267;61277;-26
2023/12/30 13:08:41;;;;;;;4.80;4.00;;;;;;;8.75;62.59;98247.92;105110;1264;70949;-26